Time;durP1;ratioP1;P1;durP2;ratioP2;P2;SDS_P1;SDS_P2;PMS_P1;PMS_P2;Temp;Humidity;BMP_temperature;BMP_pressure;BME280_temperature;BME280_humidity;BME280_pressure;Samples;Min_cycle;Max_cycle;Signal;HPM_P1;HPM_P2
2023/05/30 00:00:11;;;;;;;15.52;3.95;;;18.10;52.40;;;;;;5116398;28;20200;-75
2023/05/30 00:02:38;;;;;;;12.88;3.58;;;18.10;52.40;;;;;;5116410;28;20186;-74
2023/05/30 00:05:06;;;;;;;11.23;3.47;;;18.10;52.40;;;;;;5097974;28;20755;-75
2023/05/30 00:07:34;;;;;;;14.73;3.60;;;18.10;52.40;;;;;;5116165;28;20562;-74
2023/05/30 00:10:01;;;;;;;12.48;3.30;;;18.10;52.40;;;;;;5116079;28;20217;-75
2023/05/30 00:12:28;;;;;;;15.48;3.97;;;18.10;52.40;;;;;;5098388;28;20218;-75
2023/05/30 00:14:59;;;;;;;10.27;3.22;;;18.10;52.40;;;;;;5115934;28;20225;-75
2023/05/30 00:17:26;;;;;;;11.43;3.50;;;18.10;52.40;;;;;;5116269;28;20223;-75
2023/05/30 00:19:54;;;;;;;10.48;3.35;;;18.10;52.40;;;;;;5115826;28;20217;-74
2023/05/30 00:22:22;;;;;;;11.77;3.00;;;18.10;52.40;;;;;;5115817;28;20189;-75
2023/05/30 00:24:51;;;;;;;11.77;3.28;;;18.10;52.40;;;;;;5115636;28;20217;-75
2023/05/30 00:27:18;;;;;;;10.98;3.63;;;18.10;52.40;;;;;;5115972;28;20234;-75
2023/05/30 00:29:46;;;;;;;11.10;3.47;;;18.10;52.40;;;;;;5115461;28;20217;-75
2023/05/30 00:32:13;;;;;;;12.70;3.55;;;18.10;52.40;;;;;;5115771;28;20216;-75
2023/05/30 00:34:40;;;;;;;14.75;3.60;;;18.10;52.40;;;;;;5116056;28;20287;-73
2023/05/30 00:37:08;;;;;;;10.85;3.25;;;18.10;52.40;;;;;;5115603;28;20670;-74
2023/05/30 00:39:35;;;;;;;11.95;3.40;;;18.10;52.40;;;;;;5097251;28;20220;-75
2023/05/30 00:42:05;;;;;;;11.48;3.22;;;18.10;52.40;;;;;;5115289;28;20192;-74
2023/05/30 00:44:31;;;;;;;10.25;3.60;;;18.10;52.40;;;;;;5115837;28;20625;-73
2023/05/30 00:46:59;;;;;;;11.65;3.20;;;18.10;52.50;;;;;;5115522;28;20185;-74
2023/05/30 00:49:26;;;;;;;12.20;3.63;;;18.10;52.50;;;;;;5115253;28;20219;-74
2023/05/30 00:51:54;;;;;;;14.63;3.80;;;18.10;52.40;;;;;;5114148;28;20582;-74
2023/05/30 00:54:22;;;;;;;14.23;3.75;;;18.10;52.40;;;;;;5114742;28;20213;-74
2023/05/30 00:56:50;;;;;;;14.70;3.30;;;18.10;53.10;;;;;;5115796;28;20189;-74
2023/05/30 00:59:20;;;;;;;12.82;3.50;;;18.10;52.50;;;;;;5115368;28;20312;-75
2023/05/30 01:01:47;;;;;;;9.55;3.72;;;18.10;52.50;;;;;;5115305;28;20310;-75
2023/05/30 01:04:15;;;;;;;11.65;3.42;;;18.10;52.50;;;;;;5115569;28;20223;-74
2023/05/30 01:06:46;;;;;;;13.07;3.72;;;18.10;52.50;;;;;;5115181;28;20280;-74
2023/05/30 01:09:14;;;;;;;11.63;3.65;;;18.10;52.50;;;;;;5097591;28;20278;-74
2023/05/30 01:11:54;;;;;;;9.65;3.50;;;18.10;52.50;;;;;;5114972;28;20223;-73
2023/05/30 01:14:30;;;;;;;11.25;3.10;;;18.10;52.50;;;;;;5115083;28;20213;-74
2023/05/30 01:17:03;;;;;;;12.00;3.17;;;18.10;52.50;;;;;;5115008;28;20646;-74
2023/05/30 01:19:56;;;;;;;9.70;2.90;;;18.10;52.50;;;;;;5114866;28;20224;-74
2023/05/30 01:22:36;;;;;;;12.05;3.05;;;18.10;52.60;;;;;;5097077;28;20192;-74
2023/05/30 01:25:21;;;;;;;10.32;2.83;;;18.10;52.50;;;;;;5096270;28;20227;-74
2023/05/30 01:30:54;;;;;;;14.35;3.55;;;18.10;52.50;;;;;;5046058;27;21109;-75
2023/05/30 01:33:22;;;;;;;12.98;3.45;;;18.10;52.60;;;;;;5046312;28;20215;-75
2023/05/30 01:35:50;;;;;;;11.82;3.50;;;18.10;52.60;;;;;;5046304;28;20198;-75
2023/05/30 01:38:17;;;;;;;13.25;3.08;;;18.10;52.60;;;;;;5046252;28;20231;-75
2023/05/30 01:40:49;;;;;;;10.88;3.33;;;18.10;52.60;;;;;;5046017;27;20224;-75
2023/05/30 01:43:25;;;;;;;12.93;3.30;;;18.10;52.60;;;;;;5046107;28;20215;-75
2023/05/30 01:45:57;;;;;;;12.57;3.15;;;18.00;53.20;;;;;;5045875;27;20192;-75
2023/05/30 01:48:30;;;;;;;7.28;2.67;;;18.10;52.70;;;;;;5046065;28;20226;-75
2023/05/30 01:51:00;;;;;;;12.85;2.95;;;18.00;52.50;;;;;;5045807;28;20951;-75
2023/05/30 01:53:41;;;;;;;11.93;3.78;;;18.10;52.70;;;;;;5045859;28;20218;-75
2023/05/30 01:56:12;;;;;;;13.18;3.35;;;18.10;52.70;;;;;;5045617;28;20638;-75
2023/05/30 01:58:40;;;;;;;15.10;3.67;;;18.10;52.70;;;;;;5045931;28;20251;-75
2023/05/30 02:01:09;;;;;;;11.95;3.60;;;18.10;52.70;;;;;;5045680;28;20203;-75
2023/05/30 02:03:36;;;;;;;14.10;3.33;;;18.00;52.60;;;;;;5045468;28;20644;-75
2023/05/30 02:06:04;;;;;;;16.88;3.30;;;18.10;52.70;;;;;;5045339;28;20567;-75
2023/05/30 02:08:31;;;;;;;11.07;3.00;;;18.10;52.70;;;;;;5045689;28;20220;-75
2023/05/30 02:10:57;;;;;;;14.25;3.00;;;18.10;52.70;;;;;;5045652;27;20326;-75
2023/05/30 02:13:24;;;;;;;11.57;3.35;;;18.10;52.70;;;;;;5045601;28;20220;-75
2023/05/30 02:15:51;;;;;;;16.90;3.58;;;18.10;52.70;;;;;;5045379;28;20650;-75
2023/05/30 02:18:20;;;;;;;11.75;3.63;;;18.10;52.70;;;;;;5045633;28;20220;-75
2023/05/30 02:20:47;;;;;;;11.98;2.85;;;18.00;52.60;;;;;;5045445;28;20196;-75
2023/05/30 02:23:14;;;;;;;10.35;3.10;;;18.10;52.70;;;;;;5045514;28;20635;-75
2023/05/30 02:25:41;;;;;;;12.13;3.17;;;18.00;52.70;;;;;;5045168;27;20561;-74
2023/05/30 02:28:08;;;;;;;12.10;3.22;;;18.00;52.70;;;;;;5045079;28;20645;-75
2023/05/30 02:30:35;;;;;;;11.90;3.30;;;18.00;53.30;;;;;;5044685;28;20614;-75
2023/05/30 02:33:02;;;;;;;14.75;3.40;;;18.10;52.70;;;;;;5045444;28;20204;-75
2023/05/30 02:35:30;;;;;;;10.18;3.30;;;18.00;52.70;;;;;;5045282;28;20195;-75
2023/05/30 02:37:57;;;;;;;13.65;3.20;;;18.00;52.70;;;;;;5045228;28;20198;-75
2023/05/30 02:40:24;;;;;;;16.45;3.20;;;18.00;52.70;;;;;;5041642;28;20192;-75
2023/05/30 02:42:51;;;;;;;18.55;3.60;;;18.10;52.80;;;;;;5031890;28;20602;-75
2023/05/30 02:45:18;;;;;;;13.05;2.85;;;18.10;52.80;;;;;;5031976;27;20216;-75
2023/05/30 02:47:44;;;;;;;9.80;3.35;;;18.00;52.70;;;;;;5031803;28;20242;-75
2023/05/30 02:50:11;;;;;;;9.57;3.15;;;18.00;53.30;;;;;;5031520;28;20327;-75
2023/05/30 02:52:40;;;;;;;11.30;3.08;;;18.00;52.70;;;;;;5031828;28;20239;-75
2023/05/30 02:55:07;;;;;;;18.42;4.13;;;18.00;52.70;;;;;;5031513;28;20218;-75
2023/05/30 02:57:34;;;;;;;9.40;2.85;;;18.00;52.70;;;;;;5031686;28;20272;-75
2023/05/30 03:00:03;;;;;;;16.17;3.67;;;18.00;52.80;;;;;;5031626;28;20252;-75
2023/05/30 03:02:30;;;;;;;8.07;2.72;;;18.00;52.70;;;;;;5031882;28;20521;-75
2023/05/30 03:04:58;;;;;;;11.57;3.10;;;18.00;52.80;;;;;;5031409;28;20690;-75
2023/05/30 03:07:26;;;;;;;12.48;3.03;;;18.00;52.80;;;;;;5031297;28;20237;-75
2023/05/30 03:09:55;;;;;;;11.93;3.55;;;18.00;52.80;;;;;;5030001;28;20232;-75
2023/05/30 03:12:22;;;;;;;9.90;3.28;;;18.00;52.80;;;;;;5031439;28;20279;-75
2023/05/30 03:14:49;;;;;;;13.40;3.22;;;18.10;52.90;;;;;;5030264;28;20217;-75
2023/05/30 03:17:16;;;;;;;13.48;3.08;;;18.00;52.80;;;;;;5031189;28;20228;-75
2023/05/30 03:19:43;;;;;;;11.93;2.88;;;18.00;52.80;;;;;;5031383;28;20246;-75
2023/05/30 03:22:10;;;;;;;11.30;3.38;;;18.00;52.90;;;;;;5031336;28;20271;-75
2023/05/30 03:24:37;;;;;;;13.30;3.47;;;18.00;52.80;;;;;;5031340;28;20216;-75
2023/05/30 03:27:07;;;;;;;14.57;3.55;;;18.00;52.80;;;;;;5031234;28;20281;-75
2023/05/30 03:29:34;;;;;;;12.52;3.50;;;18.00;52.90;;;;;;5030496;28;20683;-75
2023/05/30 03:32:01;;;;;;;12.50;3.35;;;18.00;52.90;;;;;;5031189;28;20197;-75
2023/05/30 03:34:30;;;;;;;12.20;3.42;;;18.00;52.90;;;;;;5031397;28;20327;-75
2023/05/30 03:36:57;;;;;;;11.50;3.10;;;18.00;52.90;;;;;;5029597;28;20276;-75
2023/05/30 03:39:24;;;;;;;15.65;3.65;;;18.00;52.90;;;;;;5030834;28;20736;-75
2023/05/30 03:41:51;;;;;;;11.02;2.75;;;18.00;52.90;;;;;;5029540;28;20288;-75
2023/05/30 03:44:21;;;;;;;11.40;3.22;;;18.00;52.90;;;;;;5029405;28;20251;-75
2023/05/30 03:46:48;;;;;;;11.13;2.92;;;18.00;52.90;;;;;;5023478;28;20697;-75
2023/05/30 03:49:15;;;;;;;10.43;2.90;;;18.00;52.90;;;;;;5011243;28;20309;-75
2023/05/30 03:51:42;;;;;;;11.38;2.95;;;18.00;53.00;;;;;;5010846;28;20192;-75
2023/05/30 03:54:09;;;;;;;11.00;3.33;;;18.00;52.90;;;;;;5010143;28;20312;-75
2023/05/30 03:56:36;;;;;;;8.70;3.50;;;18.00;52.90;;;;;;5011180;28;20515;-75
2023/05/30 03:59:03;;;;;;;15.52;3.67;;;18.00;53.00;;;;;;5010931;28;20227;-75
2023/05/30 04:01:33;;;;;;;13.50;3.00;;;18.00;53.00;;;;;;5010873;28;20572;-75
2023/05/30 04:04:00;;;;;;;10.55;3.50;;;18.00;53.00;;;;;;5011217;28;20217;-75
2023/05/30 04:06:26;;;;;;;15.65;3.78;;;18.00;53.00;;;;;;5010896;28;20185;-75
2023/05/30 04:08:53;;;;;;;11.38;2.88;;;18.00;53.00;;;;;;5010914;28;20258;-75
2023/05/30 04:11:21;;;;;;;13.50;3.38;;;18.00;53.00;;;;;;5010728;28;20217;-75
2023/05/30 04:13:48;;;;;;;9.57;3.28;;;18.00;53.00;;;;;;5010949;28;20312;-75
2023/05/30 04:16:15;;;;;;;13.00;3.30;;;18.00;53.00;;;;;;5010773;28;20196;-74
2023/05/30 04:18:46;;;;;;;13.05;3.53;;;18.00;53.00;;;;;;5009752;28;20225;-75
2023/05/30 04:21:13;;;;;;;7.28;3.00;;;18.00;53.00;;;;;;5010661;28;20194;-75
2023/05/30 04:23:41;;;;;;;13.43;3.53;;;18.00;53.00;;;;;;5010653;28;20225;-75
2023/05/30 04:26:08;;;;;;;12.68;3.60;;;18.00;53.00;;;;;;5010772;28;20197;-75
2023/05/30 04:28:39;;;;;;;11.05;3.25;;;18.00;53.00;;;;;;5010293;28;20221;-75
2023/05/30 04:31:06;;;;;;;9.10;2.80;;;18.00;53.00;;;;;;5010242;28;20714;-75
2023/05/30 04:33:35;;;;;;;10.82;2.92;;;18.00;53.10;;;;;;5010617;28;20219;-75
2023/05/30 04:36:06;;;;;;;11.98;3.88;;;18.00;53.00;;;;;;5010192;28;20557;-74
2023/05/30 04:38:34;;;;;;;10.95;3.20;;;18.00;53.10;;;;;;5010347;28;20311;-75
2023/05/30 04:41:02;;;;;;;14.85;3.42;;;18.00;53.10;;;;;;5010334;28;20196;-74
2023/05/30 04:43:29;;;;;;;11.40;2.90;;;18.00;53.10;;;;;;5010024;28;20217;-75
2023/05/30 04:46:00;;;;;;;14.73;3.65;;;18.00;53.10;;;;;;5008954;28;20564;-74
2023/05/30 04:48:27;;;;;;;13.80;3.80;;;18.00;53.10;;;;;;5010676;28;20313;-74
2023/05/30 04:50:54;;;;;;;16.33;3.30;;;18.00;53.10;;;;;;5010207;28;20236;-75
2023/05/30 04:53:23;;;;;;;14.50;4.15;;;18.00;53.10;;;;;;5010254;28;20292;-74
2023/05/30 04:55:50;;;;;;;11.15;3.17;;;18.00;53.10;;;;;;5008876;28;20211;-74
2023/05/30 04:58:17;;;;;;;12.40;3.25;;;18.00;53.10;;;;;;5010108;28;20284;-75
2023/05/30 05:00:44;;;;;;;14.90;3.40;;;18.00;53.10;;;;;;5010102;28;20223;-74
2023/05/30 05:03:11;;;;;;;16.23;3.25;;;18.00;53.10;;;;;;5009774;28;20196;-75
2023/05/30 05:05:38;;;;;;;14.90;3.53;;;18.00;53.10;;;;;;5009676;28;20193;-75
2023/05/30 05:08:06;;;;;;;14.93;3.75;;;18.00;53.10;;;;;;5009896;28;20196;-74
2023/05/30 05:10:34;;;;;;;14.55;3.20;;;18.00;53.10;;;;;;5010045;28;20312;-74
2023/05/30 05:13:01;;;;;;;11.00;2.90;;;18.00;53.10;;;;;;5009946;28;20272;-74
2023/05/30 05:15:28;;;;;;;11.13;3.33;;;17.90;53.00;;;;;;5009623;28;20221;-74
2023/05/30 05:17:55;;;;;;;12.68;2.92;;;18.00;53.10;;;;;;5008962;28;20201;-75
2023/05/30 05:20:22;;;;;;;16.65;4.07;;;18.00;53.70;;;;;;5009753;28;20225;-75
2023/05/30 05:22:49;;;;;;;12.88;3.13;;;17.90;53.00;;;;;;5009794;28;20189;-75
2023/05/30 05:25:16;;;;;;;18.17;3.63;;;18.00;53.10;;;;;;5009759;28;20725;-75
2023/05/30 05:27:44;;;;;;;15.90;3.17;;;18.00;53.10;;;;;;5009565;28;20207;-75
2023/05/30 05:30:12;;;;;;;11.38;3.58;;;17.90;53.10;;;;;;5009359;28;20233;-75
2023/05/30 05:32:40;;;;;;;13.52;3.60;;;18.00;53.20;;;;;;5009319;28;20693;-75
2023/05/30 05:35:09;;;;;;;10.40;3.20;;;18.00;53.20;;;;;;5009884;28;20312;-75
2023/05/30 05:37:36;;;;;;;12.60;3.33;;;17.90;53.10;;;;;;5009636;28;20189;-75
2023/05/30 05:40:05;;;;;;;12.07;2.88;;;17.90;53.10;;;;;;5009773;28;20224;-75
2023/05/30 05:42:32;;;;;;;11.18;3.30;;;18.00;53.20;;;;;;5009267;28;20242;-76
2023/05/30 05:45:01;;;;;;;14.40;3.53;;;18.00;53.80;;;;;;5020223;28;20228;-75
2023/05/30 05:47:28;;;;;;;12.75;3.45;;;18.00;53.20;;;;;;5013157;28;20207;-75
2023/05/30 05:49:55;;;;;;;10.70;2.95;;;18.00;53.20;;;;;;5029234;28;20307;-75
2023/05/30 05:52:22;;;;;;;14.05;3.33;;;17.90;53.10;;;;;;5020066;28;20675;-75
2023/05/30 05:54:49;;;;;;;16.95;3.90;;;18.00;53.20;;;;;;5009665;28;20308;-75
2023/05/30 05:57:16;;;;;;;17.52;3.92;;;18.00;53.20;;;;;;5009335;28;20189;-75
2023/05/30 05:59:43;;;;;;;11.90;3.50;;;18.00;53.20;;;;;;5009139;28;20223;-75
2023/05/30 06:02:12;;;;;;;9.52;3.30;;;18.00;53.20;;;;;;5009093;28;20193;-75
2023/05/30 06:04:39;;;;;;;12.88;3.88;;;17.90;53.10;;;;;;5009449;28;20224;-75
2023/05/30 06:07:06;;;;;;;11.75;3.60;;;18.00;53.20;;;;;;5011645;28;20570;-76
2023/05/30 06:09:34;;;;;;;13.70;3.53;;;18.00;53.20;;;;;;5024063;28;20594;-77
2023/05/30 06:12:01;;;;;;;15.50;3.80;;;18.00;53.20;;;;;;5029306;28;20216;-78
2023/05/30 06:14:28;;;;;;;16.88;4.10;;;18.00;53.20;;;;;;5046222;28;20204;-78
2023/05/30 06:16:55;;;;;;;17.13;4.22;;;18.00;53.20;;;;;;5134304;27;20193;-78
2023/05/30 06:19:24;;;;;;;14.63;3.35;;;18.00;53.20;;;;;;5087056;27;20789;-77
2023/05/30 06:21:51;;;;;;;15.48;3.75;;;18.10;53.30;;;;;;5031923;28;20586;-77
2023/05/30 06:24:18;;;;;;;15.05;3.83;;;18.10;53.30;;;;;;5032497;27;20246;-77
2023/05/30 06:26:45;;;;;;;17.90;3.70;;;18.10;53.30;;;;;;5032109;28;20239;-77
2023/05/30 06:29:12;;;;;;;19.15;4.07;;;18.10;53.20;;;;;;5032256;27;20231;-77
2023/05/30 06:31:39;;;;;;;16.25;3.88;;;18.20;53.30;;;;;;5031854;28;20709;-77
2023/05/30 06:34:06;;;;;;;12.52;3.58;;;18.20;53.30;;;;;;5032265;28;20699;-77
2023/05/30 06:36:35;;;;;;;14.65;3.63;;;18.20;53.40;;;;;;5032008;28;20184;-77
2023/05/30 06:39:03;;;;;;;15.55;3.35;;;18.20;53.30;;;;;;5032382;27;20382;-76
2023/05/30 06:41:30;;;;;;;11.77;3.53;;;18.20;53.40;;;;;;5026535;28;20197;-78
2023/05/30 06:43:57;;;;;;;17.13;3.85;;;18.20;54.00;;;;;;5020756;28;20728;-76
2023/05/30 06:46:24;;;;;;;14.40;4.15;;;18.20;53.40;;;;;;5012056;28;20193;-78
2023/05/30 06:48:52;;;;;;;14.10;3.75;;;18.20;53.30;;;;;;5015860;28;20216;-79
2023/05/30 06:51:18;;;;;;;15.02;3.92;;;18.30;53.50;;;;;;5011869;28;20270;-78
2023/05/30 06:53:47;;;;;;;14.07;4.25;;;18.30;53.50;;;;;;5021074;27;20217;-78
2023/05/30 06:56:14;;;;;;;15.02;3.72;;;18.40;53.50;;;;;;5030672;28;20299;-78
2023/05/30 06:58:42;;;;;;;14.25;4.00;;;18.40;53.50;;;;;;5070841;27;20299;-77
2023/05/30 07:01:10;;;;;;;18.00;3.30;;;18.40;53.50;;;;;;5027513;27;20209;-77
2023/05/30 07:03:38;;;;;;;14.32;4.35;;;18.40;53.50;;;;;;5020799;28;20225;-77
2023/05/30 07:06:06;;;;;;;12.85;3.55;;;18.50;53.40;;;;;;5015784;28;20205;-80
2023/05/30 07:08:34;;;;;;;17.58;3.72;;;18.50;53.40;;;;;;5053857;27;20181;-77
2023/05/30 07:11:02;;;;;;;14.32;3.53;;;18.50;53.40;;;;;;5134601;27;20311;-77
2023/05/30 07:13:29;;;;;;;10.80;3.00;;;18.60;53.60;;;;;;5133804;27;20313;-78
2023/05/30 07:15:56;;;;;;;13.80;3.83;;;18.60;53.70;;;;;;5031061;27;20726;-77
2023/05/30 07:18:24;;;;;;;16.80;3.70;;;18.70;53.80;;;;;;5015357;28;20200;-77
2023/05/30 07:20:51;;;;;;;22.80;3.75;;;18.70;53.60;;;;;;5015924;28;20233;-76
2023/05/30 07:23:18;;;;;;;12.65;3.67;;;18.70;53.60;;;;;;5015281;27;20198;-77
2023/05/30 07:25:45;;;;;;;13.27;3.42;;;18.70;53.50;;;;;;5030221;28;20200;-77
2023/05/30 07:28:15;;;;;;;16.73;3.83;;;18.80;53.50;;;;;;5028687;27;20207;-76
2023/05/30 07:30:42;;;;;;;18.00;3.90;;;18.70;53.40;;;;;;5023980;28;20327;-76
2023/05/30 07:33:09;;;;;;;15.32;4.05;;;18.80;53.40;;;;;;5018093;27;20197;-77
2023/05/30 07:35:36;;;;;;;15.27;4.15;;;18.80;53.30;;;;;;5028538;28;20258;-77
2023/05/30 07:38:03;;;;;;;13.25;3.78;;;18.80;53.30;;;;;;5027449;28;20205;-80
2023/05/30 07:40:30;;;;;;;17.83;3.70;;;18.80;53.30;;;;;;5029026;28;20713;-77
2023/05/30 07:42:57;;;;;;;22.55;5.00;;;18.80;53.30;;;;;;5029842;28;20377;-78
2023/05/30 07:45:26;;;;;;;20.58;3.92;;;18.80;53.20;;;;;;5030193;27;20229;-77
2023/05/30 07:47:53;;;;;;;15.75;3.85;;;18.90;53.30;;;;;;5020446;28;20240;-77
2023/05/30 07:50:20;;;;;;;12.40;3.53;;;18.90;53.30;;;;;;5028161;28;20674;-78
2023/05/30 07:52:47;;;;;;;23.73;4.07;;;18.90;53.30;;;;;;5012072;28;20228;-78
2023/05/30 07:55:15;;;;;;;13.50;3.33;;;18.90;53.30;;;;;;5024712;27;20319;-78
2023/05/30 07:57:42;;;;;;;18.40;4.05;;;18.90;53.20;;;;;;5020331;28;20273;-78
2023/05/30 08:00:10;;;;;;;16.27;3.33;;;19.00;53.20;;;;;;5026067;28;20726;-78
2023/05/30 08:02:39;;;;;;;17.27;3.28;;;19.00;53.20;;;;;;5033744;27;20195;-80
2023/05/30 08:05:06;;;;;;;17.85;3.85;;;19.00;53.10;;;;;;5029585;28;20745;-78
2023/05/30 08:07:33;;;;;;;20.75;4.32;;;19.00;53.10;;;;;;5029061;28;20320;-77
2023/05/30 08:10:01;;;;;;;13.68;3.60;;;19.10;53.10;;;;;;5018116;28;20673;-78
2023/05/30 08:12:29;;;;;;;16.38;3.67;;;19.10;53.10;;;;;;5027810;28;20312;-79
2023/05/30 08:14:56;;;;;;;13.50;3.58;;;19.10;53.10;;;;;;5029714;27;20232;-79
2023/05/30 08:17:25;;;;;;;13.13;3.33;;;19.10;53.20;;;;;;5029222;28;20200;-77
2023/05/30 08:19:55;;;;;;;21.75;4.15;;;19.20;53.30;;;;;;5029334;28;20226;-78
2023/05/30 08:22:24;;;;;;;12.48;3.70;;;19.10;53.10;;;;;;5029048;28;20702;-78
2023/05/30 08:24:51;;;;;;;14.57;3.72;;;19.20;53.20;;;;;;5025794;28;20217;-81
2023/05/30 08:27:20;;;;;;;15.65;4.25;;;19.20;53.20;;;;;;5027603;28;20581;-80
2023/05/30 08:29:48;;;;;;;17.13;3.75;;;19.20;53.20;;;;;;5028509;27;20240;-78
2023/05/30 08:32:15;;;;;;;17.35;3.75;;;19.20;53.10;;;;;;5027109;28;20376;-81
2023/05/30 08:34:43;;;;;;;13.63;3.70;;;19.20;53.10;;;;;;5025650;28;20226;-81
2023/05/30 08:37:11;;;;;;;11.63;3.42;;;19.20;53.10;;;;;;5025329;28;20307;-78
2023/05/30 08:39:38;;;;;;;17.10;3.92;;;19.20;53.10;;;;;;5027904;27;20218;-77
2023/05/30 08:42:06;;;;;;;17.48;3.78;;;19.30;53.20;;;;;;5028519;28;20197;-79
2023/05/30 08:44:33;;;;;;;14.35;3.45;;;19.30;53.00;;;;;;5029076;28;20220;-78
2023/05/30 08:47:01;;;;;;;14.63;4.07;;;19.20;52.70;;;;;;5023527;28;20195;-77
2023/05/30 08:49:32;;;;;;;15.32;3.33;;;19.20;53.20;;;;;;5026060;28;20875;-79
2023/05/30 08:52:02;;;;;;;22.20;4.32;;;19.30;52.70;;;;;;5023533;28;20252;-78
2023/05/30 08:54:36;;;;;;;13.88;3.75;;;19.30;52.70;;;;;;5030650;27;20243;-77
2023/05/30 08:57:10;;;;;;;15.50;3.78;;;19.30;52.70;;;;;;5023488;28;20196;-77
2023/05/30 08:59:37;;;;;;;12.50;3.45;;;19.30;52.60;;;;;;5028714;28;20215;-77
2023/05/30 09:02:07;;;;;;;17.05;4.03;;;19.30;52.50;;;;;;5024938;28;20224;-80
2023/05/30 09:04:34;;;;;;;13.68;4.28;;;19.40;52.60;;;;;;5042083;27;20250;-77
2023/05/30 09:07:05;;;;;;;17.45;3.42;;;19.40;52.80;;;;;;5022974;28;20189;-80
2023/05/30 09:09:35;;;;;;;12.02;3.65;;;19.40;52.70;;;;;;5037070;27;20223;-77
2023/05/30 09:12:02;;;;;;;15.10;3.67;;;19.40;52.70;;;;;;5025539;28;20211;-76
2023/05/30 09:14:30;;;;;;;16.60;3.83;;;19.40;52.70;;;;;;5027956;28;20221;-76
2023/05/30 09:16:57;;;;;;;16.45;3.50;;;19.40;52.70;;;;;;5020553;28;20211;-78
2023/05/30 09:19:25;;;;;;;16.10;3.53;;;19.40;52.70;;;;;;5027836;28;20220;-79
2023/05/30 09:21:52;;;;;;;17.65;4.15;;;19.40;52.80;;;;;;5026863;28;20192;-78
2023/05/30 09:24:20;;;;;;;14.68;4.30;;;19.50;53.60;;;;;;5036038;28;20216;-78
2023/05/30 09:27:02;;;;;;;25.70;4.20;;;19.40;52.80;;;;;;5025188;28;20688;-76
2023/05/30 09:29:31;;;;;;;17.08;3.65;;;19.50;52.90;;;;;;5026458;28;20232;-78
2023/05/30 09:31:58;;;;;;;13.73;3.70;;;19.50;52.80;;;;;;5027760;28;20698;-77
2023/05/30 09:34:25;;;;;;;14.10;3.72;;;19.50;52.90;;;;;;5033352;28;20299;-77
2023/05/30 09:36:59;;;;;;;14.80;4.13;;;19.50;52.80;;;;;;5027683;28;20272;-77
2023/05/30 09:39:27;;;;;;;11.50;3.80;;;19.50;52.80;;;;;;5029934;28;20216;-78
2023/05/30 09:41:57;;;;;;;12.48;3.58;;;19.50;52.80;;;;;;5027746;28;20184;-77
2023/05/30 09:44:26;;;;;;;19.73;4.68;;;19.60;52.80;;;;;;5026233;28;20220;-77
2023/05/30 09:46:57;;;;;;;23.15;4.60;;;19.50;52.60;;;;;;5024962;28;20215;-77
2023/05/30 09:49:24;;;;;;;17.63;3.92;;;19.60;52.60;;;;;;5026771;28;20247;-77
2023/05/30 09:51:52;;;;;;;18.88;4.30;;;19.60;52.50;;;;;;5029483;28;20299;-77
2023/05/30 09:54:20;;;;;;;22.27;4.57;;;19.60;52.50;;;;;;5029746;27;20697;-76
2023/05/30 09:56:47;;;;;;;14.15;4.35;;;19.60;52.50;;;;;;5030720;28;20646;-77
2023/05/30 09:59:15;;;;;;;18.95;4.45;;;19.60;52.40;;;;;;5043112;27;20216;-77
2023/05/30 10:01:46;;;;;;;22.35;4.38;;;19.70;52.50;;;;;;5081303;27;20215;-77
2023/05/30 10:04:14;;;;;;;14.35;4.45;;;19.70;52.40;;;;;;5040554;27;20212;-77
2023/05/30 10:06:43;;;;;;;23.15;3.53;;;19.70;52.30;;;;;;5135731;27;20207;-77
2023/05/30 10:09:11;;;;;;;13.88;4.35;;;19.70;52.30;;;;;;5046804;27;20275;-77
2023/05/30 10:11:39;;;;;;;17.42;4.05;;;19.70;52.90;;;;;;5135353;27;20208;-77
2023/05/30 10:14:06;;;;;;;20.92;4.40;;;19.70;52.30;;;;;;5134586;27;20210;-76
2023/05/30 10:16:35;;;;;;;15.93;3.28;;;19.70;52.30;;;;;;5135875;27;20185;-77
2023/05/30 10:19:07;;;;;;;18.65;4.80;;;19.70;52.20;;;;;;5134380;27;20180;-77
2023/05/30 10:21:38;;;;;;;12.23;3.53;;;19.70;52.20;;;;;;5011284;28;20242;-77
2023/05/30 10:24:10;;;;;;;22.55;5.00;;;19.80;52.30;;;;;;5010732;28;20690;-78
2023/05/30 10:26:43;;;;;;;14.40;3.92;;;19.70;52.20;;;;;;5011095;28;20190;-77
2023/05/30 10:29:14;;;;;;;15.88;4.07;;;19.80;52.20;;;;;;5018126;28;20228;-77
2023/05/30 10:31:42;;;;;;;20.73;4.10;;;19.80;52.10;;;;;;5029799;28;20212;-76
2023/05/30 10:34:14;;;;;;;15.80;3.97;;;19.80;52.00;;;;;;5030540;28;20208;-77
2023/05/30 10:36:43;;;;;;;19.08;3.92;;;19.80;52.00;;;;;;5011187;28;20197;-77
2023/05/30 10:39:21;;;;;;;16.08;4.22;;;19.80;51.80;;;;;;5015338;28;20288;-77
2023/05/30 10:41:52;;;;;;;19.40;4.47;;;19.80;51.80;;;;;;5022756;28;20192;-77
2023/05/30 10:44:33;;;;;;;15.18;4.18;;;19.80;51.70;;;;;;5011969;28;20293;-77
2023/05/30 10:47:19;;;;;;;11.70;3.78;;;19.80;51.70;;;;;;5010314;28;20658;-77
2023/05/30 10:49:52;;;;;;;16.50;3.75;;;19.80;51.70;;;;;;5013579;28;20216;-78
2023/05/30 10:52:31;;;;;;;17.45;3.80;;;19.80;51.60;;;;;;5011411;28;20312;-77
2023/05/30 10:54:58;;;;;;;13.38;4.40;;;19.80;51.60;;;;;;5016835;28;20278;-77
2023/05/30 10:57:28;;;;;;;13.80;3.70;;;19.80;51.60;;;;;;5030648;28;20276;-77
2023/05/30 10:59:55;;;;;;;14.05;4.85;;;19.80;51.40;;;;;;5030847;27;20265;-77
2023/05/30 11:02:35;;;;;;;19.98;4.32;;;19.80;51.30;;;;;;5027901;28;20196;-76
2023/05/30 11:05:08;;;;;;;12.48;4.00;;;19.90;51.30;;;;;;5015208;28;20221;-76
2023/05/30 11:07:37;;;;;;;12.38;4.00;;;19.90;51.40;;;;;;5020426;28;20682;-77
2023/05/30 11:10:06;;;;;;;13.70;3.83;;;19.90;51.30;;;;;;5016207;28;20232;-77
2023/05/30 11:12:34;;;;;;;15.23;4.45;;;19.80;51.20;;;;;;5016341;28;20298;-77
2023/05/30 11:15:01;;;;;;;12.10;4.20;;;19.80;51.10;;;;;;5017468;28;20220;-77
2023/05/30 11:17:35;;;;;;;12.18;4.07;;;19.80;51.20;;;;;;5017201;27;20271;-77
2023/05/30 11:20:14;;;;;;;13.00;3.72;;;19.80;51.10;;;;;;5017617;28;20212;-77
2023/05/30 11:22:42;;;;;;;11.50;4.05;;;19.80;51.10;;;;;;5020670;28;20205;-77
2023/05/30 11:25:22;;;;;;;14.57;4.18;;;19.80;51.10;;;;;;5019280;28;20227;-77
2023/05/30 11:28:15;;;;;;;16.15;4.15;;;19.80;51.00;;;;;;5017771;28;20196;-76
2023/05/30 11:30:46;;;;;;;13.45;4.10;;;19.90;51.00;;;;;;5017199;28;20237;-77
2023/05/30 11:33:14;;;;;;;16.05;4.10;;;19.80;51.00;;;;;;5016074;28;20303;-77
2023/05/30 11:35:46;;;;;;;12.93;3.75;;;19.80;50.90;;;;;;5019075;28;20220;-76
2023/05/30 11:38:21;;;;;;;12.48;3.92;;;19.90;51.00;;;;;;5013663;28;20214;-75
2023/05/30 11:40:49;;;;;;;15.18;4.15;;;19.80;51.10;;;;;;5018082;28;20288;-76
2023/05/30 11:43:17;;;;;;;14.95;3.83;;;19.80;51.00;;;;;;5020643;28;20204;-76
2023/05/30 11:45:46;;;;;;;10.93;3.95;;;19.80;51.00;;;;;;5019034;28;20223;-75
2023/05/30 11:48:14;;;;;;;14.93;4.70;;;19.80;51.10;;;;;;5018568;28;20207;-75
2023/05/30 11:50:42;;;;;;;13.27;3.88;;;19.80;51.00;;;;;;5019257;28;20217;-80
2023/05/30 11:53:14;;;;;;;16.33;4.68;;;19.80;50.80;;;;;;5020292;28;20722;-76
2023/05/30 11:55:45;;;;;;;9.60;3.72;;;19.80;50.90;;;;;;5010304;28;20325;-76
2023/05/30 11:58:12;;;;;;;14.75;4.57;;;19.80;50.80;;;;;;5009747;28;20560;-75
2023/05/30 12:00:41;;;;;;;10.77;4.07;;;19.80;50.80;;;;;;5009665;28;20564;-76
2023/05/30 12:03:11;;;;;;;11.68;4.28;;;19.80;50.80;;;;;;5009975;28;20265;-77
2023/05/30 12:05:39;;;;;;;15.02;4.40;;;19.80;50.80;;;;;;5015784;28;20875;-76
2023/05/30 12:08:07;;;;;;;10.95;3.75;;;19.80;50.80;;;;;;4999875;28;20688;-75
2023/05/30 12:10:35;;;;;;;11.30;3.90;;;19.80;50.80;;;;;;5013684;28;20296;-76
2023/05/30 12:13:03;;;;;;;14.98;3.72;;;19.70;50.90;;;;;;5026050;28;20212;-77
2023/05/30 12:15:31;;;;;;;12.98;4.47;;;19.70;51.00;;;;;;5026021;27;20230;-77
2023/05/30 12:18:01;;;;;;;11.20;4.22;;;19.70;51.10;;;;;;5026692;27;20204;-75
2023/05/30 12:20:29;;;;;;;12.80;4.13;;;19.70;51.20;;;;;;5041901;27;20232;-75
2023/05/30 12:22:56;;;;;;;13.25;4.13;;;19.70;51.30;;;;;;5094050;27;20650;-77
2023/05/30 12:25:26;;;;;;;14.40;3.72;;;19.70;51.40;;;;;;5029077;28;20304;-77
2023/05/30 12:27:57;;;;;;;11.52;3.88;;;19.70;51.50;;;;;;5071586;27;20199;-76
2023/05/30 12:30:24;;;;;;;12.60;4.00;;;19.70;51.60;;;;;;5093703;27;20339;-78
2023/05/30 12:32:51;;;;;;;13.65;4.10;;;19.70;51.60;;;;;;5047618;27;20331;-78
2023/05/30 12:35:25;;;;;;;13.88;3.90;;;19.70;51.60;;;;;;5020001;28;20251;-78
2023/05/30 12:37:56;;;;;;;18.20;4.82;;;19.70;52.30;;;;;;5035343;27;20282;-77
2023/05/30 12:40:26;;;;;;;17.40;5.43;;;19.70;51.70;;;;;;5034723;27;20223;-76
2023/05/30 12:42:57;;;;;;;12.88;3.85;;;19.70;51.70;;;;;;5040384;27;20267;-76
2023/05/30 12:45:24;;;;;;;10.77;3.97;;;19.70;52.40;;;;;;5037477;27;20232;-77
2023/05/30 12:47:52;;;;;;;13.10;4.63;;;19.80;51.80;;;;;;5033408;27;20211;-77